createdAt,value
2023-02-03T00:00:11.068Z,9.15
2023-02-03T00:01:11.081Z,9.13
2023-02-03T00:02:11.138Z,9.14
2023-02-03T00:03:11.110Z,9.13
2023-02-03T00:04:11.081Z,9.12
2023-02-03T00:05:11.076Z,9.13
2023-02-03T00:06:11.087Z,9.13
2023-02-03T00:07:12.071Z,9.12
2023-02-03T00:08:11.077Z,9.13
2023-02-03T00:09:11.070Z,9.13
2023-02-03T00:10:11.069Z,9.15
2023-02-03T00:11:11.076Z,9.14
2023-02-03T00:12:11.069Z,9.11
2023-02-03T00:13:11.074Z,9.13
2023-02-03T00:14:11.101Z,9.14
2023-02-03T00:15:11.078Z,9.11
2023-02-03T00:16:11.119Z,9.13
2023-02-03T00:17:11.079Z,9.12
2023-02-03T00:18:11.070Z,9.11
2023-02-03T00:19:11.077Z,9.11
2023-02-03T00:20:11.079Z,9.13
2023-02-03T00:21:11.074Z,9.14
2023-02-03T00:22:11.072Z,9.14
2023-02-03T00:23:11.086Z,9.14
2023-02-03T00:24:11.097Z,9.14
2023-02-03T00:25:11.074Z,9.13
2023-02-03T00:26:14.081Z,9.12
2023-02-03T00:27:11.081Z,9.12
2023-02-03T00:28:11.160Z,9.10
2023-02-03T00:29:11.081Z,9.07
2023-02-03T00:30:11.074Z,9.10
2023-02-03T00:31:19.197Z,9.11
2023-02-03T00:32:11.191Z,9.11
2023-02-03T00:33:11.076Z,9.10
2023-02-03T00:34:11.071Z,9.08
2023-02-03T00:35:11.070Z,9.10
2023-02-03T00:36:11.075Z,9.09
2023-02-03T00:37:11.075Z,9.09
2023-02-03T00:38:11.071Z,9.10
2023-02-03T00:39:11.080Z,9.10
2023-02-03T00:40:11.072Z,9.07
2023-02-03T00:41:11.072Z,9.04
2023-02-03T00:42:11.087Z,9.04
2023-02-03T00:43:11.073Z,9.03
2023-02-03T00:44:11.076Z,9.04
2023-02-03T00:45:11.087Z,9.03
2023-02-03T00:46:11.205Z,9.06
2023-02-03T00:47:11.076Z,9.05
2023-02-03T00:48:11.076Z,9.06
2023-02-03T00:49:11.071Z,9.05
2023-02-03T00:50:11.078Z,9.06
2023-02-03T00:51:11.081Z,9.06
2023-02-03T00:52:11.099Z,9.06
2023-02-03T00:53:11.077Z,9.07
2023-02-03T00:54:11.114Z,9.08
2023-02-03T00:55:11.076Z,9.06
2023-02-03T00:56:15.079Z,9.08
2023-02-03T00:57:11.088Z,9.06
2023-02-03T00:58:11.075Z,9.09
2023-02-03T00:59:11.089Z,9.05
2023-02-03T01:00:11.062Z,9.04
2023-02-03T01:01:11.140Z,9.02
2023-02-03T01:02:11.127Z,9.00
2023-02-03T01:03:11.068Z,8.99
2023-02-03T01:04:11.066Z,8.94
2023-02-03T01:05:11.064Z,8.92
2023-02-03T01:06:15.064Z,8.89
2023-02-03T01:07:11.067Z,8.89
2023-02-03T01:08:11.068Z,8.89
2023-02-03T01:09:11.064Z,8.86
2023-02-03T01:10:11.070Z,8.85
2023-02-03T01:11:14.063Z,8.84
2023-02-03T01:12:11.067Z,8.85
2023-02-03T01:13:11.075Z,8.84
2023-02-03T01:14:11.062Z,8.83
2023-02-03T01:15:11.069Z,8.81
2023-02-03T01:16:11.110Z,8.83
2023-02-03T01:17:11.077Z,8.84
2023-02-03T01:18:11.068Z,8.82
2023-02-03T01:19:11.084Z,8.80
2023-02-03T01:20:11.071Z,8.78
2023-02-03T01:21:11.067Z,8.79
2023-02-03T01:22:11.073Z,8.79
2023-02-03T01:23:11.070Z,8.80
2023-02-03T01:24:11.062Z,8.75
2023-02-03T01:25:11.097Z,8.77
2023-02-03T01:26:12.094Z,8.77
2023-02-03T01:27:11.069Z,8.73
2023-02-03T01:28:11.091Z,8.74
2023-02-03T01:29:11.064Z,8.69
2023-02-03T01:30:11.070Z,8.68
2023-02-03T01:31:15.105Z,8.69
2023-02-03T01:32:11.068Z,8.68
2023-02-03T01:33:11.071Z,8.67
2023-02-03T01:34:12.073Z,8.68
2023-02-03T01:35:11.074Z,8.68
2023-02-03T01:36:11.063Z,8.70
2023-02-03T01:37:11.069Z,8.72
2023-02-03T01:38:11.068Z,8.70
2023-02-03T01:39:11.064Z,8.72
2023-02-03T01:40:11.074Z,8.73
2023-02-03T01:41:16.065Z,8.73
2023-02-03T01:42:13.078Z,8.72
2023-02-03T01:43:11.070Z,8.71
2023-02-03T01:44:19.066Z,8.73
2023-02-03T01:45:12.561Z,8.72
2023-02-03T01:46:19.181Z,8.72
2023-02-03T01:47:19.102Z,8.73
2023-02-03T01:48:11.067Z,8.73
2023-02-03T01:49:14.070Z,8.75
2023-02-03T01:50:19.079Z,8.73
2023-02-03T01:51:11.070Z,8.73
2023-02-03T01:52:11.068Z,8.77
2023-02-03T01:53:12.067Z,8.79
2023-02-03T01:54:19.069Z,8.82
2023-02-03T01:55:13.074Z,8.84
2023-02-03T01:56:11.072Z,8.86
2023-02-03T01:57:19.081Z,8.88
2023-02-03T01:58:15.078Z,8.89
2023-02-03T01:59:11.069Z,8.89
2023-02-03T02:00:11.076Z,8.90
2023-02-03T02:01:11.094Z,8.88
2023-02-03T02:02:11.120Z,8.88
2023-02-03T02:03:11.067Z,8.88
2023-02-03T02:04:11.069Z,8.87
2023-02-03T02:05:19.067Z,8.87
2023-02-03T02:06:11.083Z,8.88
2023-02-03T02:07:11.076Z,8.91
2023-02-03T02:08:11.069Z,8.90
2023-02-03T02:09:11.074Z,8.94
2023-02-03T02:10:11.082Z,8.96
2023-02-03T02:11:11.069Z,8.98
2023-02-03T02:12:11.078Z,9.01
2023-02-03T02:13:11.085Z,9.02
2023-02-03T02:14:11.071Z,9.02
2023-02-03T02:15:11.072Z,9.05
2023-02-03T02:16:20.163Z,9.01
2023-02-03T02:17:21.069Z,9.01
2023-02-03T02:18:21.069Z,9.02
2023-02-03T02:19:21.067Z,9.05
2023-02-03T02:20:20.781Z,9.03
2023-02-03T02:21:21.077Z,9.03
2023-02-03T02:22:19.092Z,9.03
2023-02-03T02:23:21.072Z,9.03
2023-02-03T02:24:19.071Z,8.98
2023-02-03T02:25:19.070Z,9.01
2023-02-03T02:26:19.078Z,9.00
2023-02-03T02:27:18.076Z,9.02
2023-02-03T02:28:21.075Z,9.02
2023-02-03T02:29:21.080Z,9.02
2023-02-03T02:30:21.074Z,9.05
2023-02-03T02:31:19.199Z,9.09
2023-02-03T02:32:19.071Z,9.10
2023-02-03T02:33:19.072Z,9.12
2023-02-03T02:34:19.072Z,9.14
2023-02-03T02:35:23.077Z,9.14
2023-02-03T02:36:19.077Z,9.17
2023-02-03T02:37:19.080Z,9.20
2023-02-03T02:38:21.073Z,9.26
2023-02-03T02:39:19.075Z,9.24
2023-02-03T02:40:19.074Z,9.26
2023-02-03T02:41:19.080Z,9.28
2023-02-03T02:42:20.074Z,9.31
2023-02-03T02:43:19.069Z,9.31
2023-02-03T02:44:20.069Z,9.31
2023-02-03T02:45:19.075Z,9.33
2023-02-03T02:46:19.140Z,9.38
2023-02-03T02:47:18.074Z,9.42
2023-02-03T02:48:19.076Z,9.43
2023-02-03T02:49:20.080Z,9.45
2023-02-03T02:50:19.085Z,9.46
2023-02-03T02:51:12.089Z,9.48
2023-02-03T02:52:12.079Z,9.48
2023-02-03T02:53:11.078Z,9.50
2023-02-03T02:54:15.089Z,9.51
2023-02-03T02:55:16.074Z,9.53
2023-02-03T02:56:11.757Z,9.52
2023-02-03T02:57:11.083Z,9.56
2023-02-03T02:58:13.074Z,9.56
2023-02-03T02:59:11.076Z,9.57
2023-02-03T03:00:11.075Z,9.54
2023-02-03T03:01:11.121Z,9.55
2023-02-03T03:02:12.073Z,9.58
2023-02-03T03:03:18.078Z,9.59
2023-02-03T03:04:12.093Z,9.61
2023-02-03T03:05:11.096Z,9.63
2023-02-03T03:06:14.078Z,9.64
2023-02-03T03:07:17.091Z,9.62
2023-02-03T03:08:12.076Z,9.65
2023-02-03T03:09:15.086Z,9.67
2023-02-03T03:10:13.075Z,9.70
2023-02-03T03:11:11.075Z,9.72
2023-02-03T03:12:14.075Z,9.72
2023-02-03T03:13:14.077Z,9.71
2023-02-03T03:14:12.077Z,9.76
2023-02-03T03:15:17.077Z,9.74
2023-02-03T03:16:11.177Z,9.75
2023-02-03T03:17:14.089Z,9.75
2023-02-03T03:18:16.077Z,9.79
2023-02-03T03:19:16.082Z,9.80
2023-02-03T03:20:15.084Z,9.77
2023-02-03T03:21:12.077Z,9.77
2023-02-03T03:22:11.076Z,9.78
2023-02-03T03:23:16.078Z,9.78
2023-02-03T03:24:13.076Z,9.82
2023-02-03T03:25:20.073Z,9.80
2023-02-03T03:26:19.078Z,9.76
2023-02-03T03:27:15.075Z,9.77
2023-02-03T03:28:16.184Z,9.79
2023-02-03T03:29:20.075Z,9.80
2023-02-03T03:30:19.088Z,9.80
2023-02-03T03:31:11.232Z,9.79
2023-02-03T03:32:11.077Z,9.83
2023-02-03T03:33:11.081Z,9.83
2023-02-03T03:34:11.080Z,9.81
2023-02-03T03:35:11.084Z,9.82
2023-02-03T03:36:19.092Z,9.84
2023-02-03T03:37:19.092Z,9.81
2023-02-03T03:38:19.092Z,9.83
2023-02-03T03:39:19.082Z,9.86
2023-02-03T03:40:20.077Z,9.83
2023-02-03T03:41:19.079Z,9.85
2023-02-03T03:42:19.085Z,9.84
2023-02-03T03:43:19.078Z,9.83
2023-02-03T03:44:14.074Z,9.83
2023-02-03T03:45:16.077Z,9.83
2023-02-03T03:46:16.122Z,9.83
2023-02-03T03:47:22.079Z,9.85
2023-02-03T03:48:17.076Z,9.87
2023-02-03T03:49:12.084Z,9.84
2023-02-03T03:50:13.081Z,9.84
2023-02-03T03:51:18.081Z,9.86
2023-02-03T03:52:13.089Z,9.84
2023-02-03T03:53:11.088Z,9.83
2023-02-03T03:54:12.081Z,9.83
2023-02-03T03:55:12.079Z,9.78
2023-02-03T03:56:15.083Z,9.81
2023-02-03T03:57:22.083Z,9.83
2023-02-03T03:58:13.101Z,9.84
2023-02-03T03:59:11.083Z,9.83
2023-02-03T04:00:11.072Z,9.80
2023-02-03T04:01:11.074Z,9.80
2023-02-03T04:02:12.197Z,9.83
2023-02-03T04:03:17.156Z,9.82
2023-02-03T04:04:11.061Z,9.81
2023-02-03T04:05:11.064Z,9.80
2023-02-03T04:06:11.073Z,9.77
2023-02-03T04:07:11.063Z,9.78
2023-02-03T04:08:11.060Z,9.79
2023-02-03T04:09:11.062Z,9.79
2023-02-03T04:10:21.063Z,9.79
2023-02-03T04:11:11.063Z,9.78
2023-02-03T04:12:21.064Z,9.78
2023-02-03T04:13:11.062Z,9.78
2023-02-03T04:14:11.070Z,9.76
2023-02-03T04:15:11.062Z,9.75
2023-02-03T04:16:11.147Z,9.72
2023-02-03T04:17:11.065Z,9.74
2023-02-03T04:18:11.063Z,9.76
2023-02-03T04:19:11.073Z,9.76
2023-02-03T04:20:11.063Z,9.69
2023-02-03T04:21:11.061Z,9.71
2023-02-03T04:22:11.063Z,9.70
2023-02-03T04:23:11.083Z,9.68
2023-02-03T04:24:11.066Z,9.65
2023-02-03T04:25:11.067Z,9.65
2023-02-03T04:26:11.067Z,9.66
2023-02-03T04:27:11.071Z,9.60
2023-02-03T04:28:11.141Z,9.58
2023-02-03T04:29:11.065Z,9.58
2023-02-03T04:30:11.068Z,9.57
2023-02-03T04:31:11.159Z,9.54
2023-02-03T04:32:11.109Z,9.52
2023-02-03T04:33:11.061Z,9.53
2023-02-03T04:34:11.063Z,9.54
2023-02-03T04:35:11.075Z,9.52
2023-02-03T04:36:11.061Z,9.51
2023-02-03T04:37:11.070Z,9.47
2023-02-03T04:38:11.082Z,9.42
2023-02-03T04:39:11.066Z,9.43
2023-02-03T04:40:11.068Z,9.44
2023-02-03T04:41:11.073Z,9.45
2023-02-03T04:42:11.065Z,9.43
2023-02-03T04:43:11.064Z,9.41
2023-02-03T04:44:11.067Z,9.39
2023-02-03T04:45:11.069Z,9.38
2023-02-03T04:46:11.112Z,9.39
2023-02-03T04:47:11.067Z,9.39
2023-02-03T04:48:11.061Z,9.39
2023-02-03T04:49:11.073Z,9.37
2023-02-03T04:50:11.071Z,9.35
2023-02-03T04:51:11.066Z,9.36
2023-02-03T04:52:11.065Z,9.37
2023-02-03T04:53:11.072Z,9.38
2023-02-03T04:54:11.065Z,9.36
2023-02-03T04:55:11.084Z,9.36
2023-02-03T04:56:11.111Z,9.35
2023-02-03T04:57:11.064Z,9.33
2023-02-03T04:58:11.069Z,9.36
2023-02-03T04:59:11.068Z,9.30
2023-02-03T05:00:11.089Z,9.31
2023-02-03T05:01:11.142Z,9.33
2023-02-03T05:02:11.069Z,9.33
2023-02-03T05:03:11.109Z,9.33
2023-02-03T05:04:11.070Z,9.32
2023-02-03T05:05:11.087Z,9.33
2023-02-03T05:06:11.064Z,9.35
2023-02-03T05:07:11.069Z,9.34
2023-02-03T05:08:11.200Z,9.33
2023-02-03T05:09:11.068Z,9.31
2023-02-03T05:10:11.073Z,9.33
2023-02-03T05:11:11.074Z,9.29
2023-02-03T05:12:11.068Z,9.28
2023-02-03T05:13:11.077Z,9.28
2023-02-03T05:14:11.077Z,9.27
2023-02-03T05:15:11.069Z,9.30
2023-02-03T05:16:11.096Z,9.28
2023-02-03T05:17:11.076Z,9.27
2023-02-03T05:18:11.072Z,9.28
2023-02-03T05:19:11.074Z,9.30
2023-02-03T05:20:11.073Z,9.31
2023-02-03T05:21:11.071Z,9.28
2023-02-03T05:22:11.073Z,9.28
2023-02-03T05:23:11.100Z,9.29
2023-02-03T05:24:11.068Z,9.31
2023-02-03T05:25:11.085Z,9.26
2023-02-03T05:26:11.082Z,9.27
2023-02-03T05:27:11.072Z,9.28
2023-02-03T05:28:11.177Z,9.28
2023-02-03T05:29:11.076Z,9.26
2023-02-03T05:30:11.076Z,9.24
2023-02-03T05:31:11.152Z,9.23
2023-02-03T05:32:11.121Z,9.22
2023-02-03T05:33:11.072Z,9.21
2023-02-03T05:34:11.067Z,9.17
2023-02-03T05:35:11.077Z,9.20
2023-02-03T05:36:11.074Z,9.20
2023-02-03T05:37:11.067Z,9.20
2023-02-03T05:38:11.074Z,9.19
2023-02-03T05:39:11.071Z,9.17
2023-02-03T05:40:15.073Z,9.19
2023-02-03T05:41:15.073Z,9.20
2023-02-03T05:42:11.078Z,9.19
2023-02-03T05:43:11.070Z,9.20
2023-02-03T05:44:11.072Z,9.20
2023-02-03T05:45:11.080Z,9.17
2023-02-03T05:46:11.096Z,9.15
2023-02-03T05:47:11.070Z,9.15
2023-02-03T05:48:11.078Z,9.16
2023-02-03T05:49:11.071Z,9.14
2023-02-03T05:50:11.072Z,9.16
2023-02-03T05:51:11.082Z,9.15
2023-02-03T05:52:11.087Z,9.16
2023-02-03T05:53:11.076Z,9.16
2023-02-03T05:54:11.077Z,9.17
2023-02-03T05:55:11.079Z,9.18
2023-02-03T05:56:11.075Z,9.19
2023-02-03T05:57:11.079Z,9.20
2023-02-03T05:58:11.073Z,9.17
2023-02-03T05:59:11.074Z,9.19
2023-02-03T06:00:11.077Z,9.18
2023-02-03T06:01:11.076Z,9.17
2023-02-03T06:02:11.071Z,9.15
2023-02-03T06:03:11.125Z,9.16
2023-02-03T06:04:11.171Z,9.17
2023-02-03T06:05:11.076Z,9.15
2023-02-03T06:06:11.076Z,9.15
2023-02-03T06:07:11.076Z,9.14
2023-02-03T06:08:11.075Z,9.16
2023-02-03T06:09:11.073Z,9.14
2023-02-03T06:10:11.079Z,9.14
2023-02-03T06:11:11.074Z,9.14
2023-02-03T06:12:11.076Z,9.14
2023-02-03T06:13:13.083Z,9.17
2023-02-03T06:14:11.076Z,9.17
2023-02-03T06:15:11.073Z,9.18
2023-02-03T06:16:11.169Z,9.18
2023-02-03T06:17:11.070Z,9.18
2023-02-03T06:18:11.077Z,9.15
2023-02-03T06:19:11.078Z,9.16
2023-02-03T06:20:11.073Z,9.17
2023-02-03T06:21:11.076Z,9.15
2023-02-03T06:22:11.078Z,9.17
2023-02-03T06:23:11.076Z,9.19
2023-02-03T06:24:11.076Z,9.17
2023-02-03T06:25:13.004Z,9.18
2023-02-03T06:26:11.077Z,9.20
2023-02-03T06:27:11.074Z,9.18
2023-02-03T06:28:11.138Z,9.18
2023-02-03T06:29:11.077Z,9.20
2023-02-03T06:30:11.078Z,9.20
2023-02-03T06:31:11.225Z,9.19
2023-02-03T06:32:11.072Z,9.18
2023-02-03T06:33:11.078Z,9.18
2023-02-03T06:34:11.084Z,9.18
2023-02-03T06:35:11.072Z,9.18
2023-02-03T06:36:11.075Z,9.18
2023-02-03T06:37:11.082Z,9.16
2023-02-03T06:38:11.075Z,9.16
2023-02-03T06:39:11.077Z,9.14
2023-02-03T06:40:11.085Z,9.15
2023-02-03T06:41:11.075Z,9.09
2023-02-03T06:42:11.084Z,9.10
2023-02-03T06:43:11.085Z,9.10
2023-02-03T06:44:11.075Z,9.06
2023-02-03T06:45:11.079Z,9.07
2023-02-03T06:46:11.139Z,9.07
2023-02-03T06:47:11.076Z,9.09
2023-02-03T06:48:11.081Z,9.08
2023-02-03T06:49:11.084Z,9.09
2023-02-03T06:50:11.072Z,9.06
2023-02-03T06:51:11.079Z,9.05
2023-02-03T06:52:11.087Z,9.07
2023-02-03T06:53:11.079Z,9.07
2023-02-03T06:54:11.082Z,9.05
2023-02-03T06:55:11.100Z,9.07
2023-02-03T06:56:11.093Z,9.05
2023-02-03T06:57:11.076Z,9.06
2023-02-03T06:58:11.101Z,9.06
2023-02-03T06:59:11.092Z,9.05
2023-02-03T07:00:13.605Z,9.05
2023-02-03T07:01:11.197Z,9.02
2023-02-03T07:02:11.064Z,9.06
2023-02-03T07:03:11.056Z,9.10
2023-02-03T07:04:11.073Z,9.11
2023-02-03T07:05:11.061Z,9.11
2023-02-03T07:06:11.061Z,9.08
2023-02-03T07:07:11.067Z,9.08
2023-02-03T07:08:11.062Z,9.11
2023-02-03T07:09:11.058Z,9.09
2023-02-03T07:10:11.069Z,9.07
2023-02-03T07:11:11.060Z,9.07
2023-02-03T07:12:11.064Z,9.06
2023-02-03T07:13:11.069Z,9.06
2023-02-03T07:14:11.068Z,9.05
2023-02-03T07:15:11.064Z,9.04
2023-02-03T07:16:11.135Z,9.05
2023-02-03T07:17:11.063Z,9.03
2023-02-03T07:18:11.835Z,9.05
2023-02-03T07:19:11.065Z,9.02
2023-02-03T07:20:11.063Z,9.02
2023-02-03T07:21:11.064Z,9.02
2023-02-03T07:22:11.069Z,9.02
2023-02-03T07:23:11.075Z,9.01
2023-02-03T07:24:11.059Z,9.02
2023-02-03T07:25:11.070Z,8.99
2023-02-03T07:26:11.096Z,8.99
2023-02-03T07:27:11.065Z,8.98
2023-02-03T07:28:11.146Z,8.99
2023-02-03T07:29:11.064Z,8.99
2023-02-03T07:30:11.058Z,8.98
2023-02-03T07:31:11.227Z,9.00
2023-02-03T07:32:11.110Z,9.00
2023-02-03T07:33:11.058Z,8.98
2023-02-03T07:34:11.072Z,8.97
2023-02-03T07:35:11.064Z,8.93
2023-02-03T07:36:11.060Z,8.96
2023-02-03T07:37:11.074Z,8.96
2023-02-03T07:38:11.075Z,8.94
2023-02-03T07:39:11.065Z,8.94
2023-02-03T07:40:11.071Z,8.94
2023-02-03T07:41:11.067Z,8.92
2023-02-03T07:42:11.061Z,8.94
2023-02-03T07:43:11.070Z,8.93
2023-02-03T07:44:11.066Z,8.93
2023-02-03T07:45:11.077Z,8.91
2023-02-03T07:46:11.117Z,8.91
2023-02-03T07:47:12.515Z,8.90
2023-02-03T07:48:11.074Z,8.92
2023-02-03T07:49:11.088Z,8.93
2023-02-03T07:50:11.063Z,8.91
2023-02-03T07:51:11.091Z,8.89
2023-02-03T07:52:11.084Z,8.90
2023-02-03T07:53:11.074Z,8.91
2023-02-03T07:54:11.102Z,8.93
2023-02-03T07:55:11.086Z,8.92
2023-02-03T07:56:11.088Z,8.93
2023-02-03T07:57:11.067Z,8.92
2023-02-03T07:58:11.070Z,8.93
2023-02-03T07:59:11.073Z,8.94
2023-02-03T08:00:11.094Z,8.92
2023-02-03T08:01:17.081Z,8.94
2023-02-03T08:02:11.068Z,8.95
2023-02-03T08:03:11.067Z,8.96
2023-02-03T08:04:11.074Z,8.98
2023-02-03T08:05:11.128Z,9.00
2023-02-03T08:06:11.067Z,8.98
2023-02-03T08:07:11.071Z,8.97
2023-02-03T08:08:11.066Z,8.96
2023-02-03T08:09:11.065Z,8.95
2023-02-03T08:10:11.073Z,8.96
2023-02-03T08:11:11.074Z,8.95
2023-02-03T08:12:11.063Z,8.97
2023-02-03T08:13:11.073Z,8.94
2023-02-03T08:14:11.067Z,8.94
2023-02-03T08:15:11.071Z,8.95
2023-02-03T08:16:11.101Z,8.96
2023-02-03T08:17:11.065Z,8.98
2023-02-03T08:18:12.069Z,8.99
2023-02-03T08:19:11.078Z,9.02
2023-02-03T08:20:11.068Z,9.02
2023-02-03T08:21:11.071Z,9.02
2023-02-03T08:22:11.077Z,9.06
2023-02-03T08:23:11.066Z,9.10
2023-02-03T08:24:11.074Z,9.08
2023-02-03T08:25:11.090Z,9.11
2023-02-03T08:26:11.067Z,9.12
2023-02-03T08:27:11.118Z,9.13
2023-02-03T08:28:11.134Z,9.15
2023-02-03T08:29:11.069Z,9.18
2023-02-03T08:30:12.071Z,9.18
2023-02-03T08:31:13.196Z,9.21
2023-02-03T08:32:13.117Z,9.23
2023-02-03T08:33:11.070Z,9.23
2023-02-03T08:34:11.068Z,9.23
2023-02-03T08:35:11.071Z,9.24
2023-02-03T08:36:11.073Z,9.23
2023-02-03T08:37:11.105Z,9.24
2023-02-03T08:38:11.071Z,9.21
2023-02-03T08:39:11.085Z,9.24
2023-02-03T08:40:11.080Z,9.26
2023-02-03T08:41:14.081Z,9.26
2023-02-03T08:42:11.087Z,9.27
2023-02-03T08:43:11.075Z,9.28
2023-02-03T08:44:11.089Z,9.27
2023-02-03T08:45:11.069Z,9.25
2023-02-03T08:46:11.165Z,9.26
2023-02-03T08:47:11.185Z,9.27
2023-02-03T08:48:11.068Z,9.28
2023-02-03T08:49:11.072Z,9.25
2023-02-03T08:50:11.090Z,9.30
2023-02-03T08:51:13.112Z,9.30
2023-02-03T08:52:12.102Z,9.33
2023-02-03T08:53:11.084Z,9.33
2023-02-03T08:54:11.071Z,9.32
2023-02-03T08:55:11.072Z,9.36
2023-02-03T08:56:11.079Z,9.39
2023-02-03T08:57:11.068Z,9.39
2023-02-03T08:58:11.070Z,9.39
2023-02-03T08:59:11.079Z,9.37
2023-02-03T09:00:11.076Z,9.36
2023-02-03T09:01:15.172Z,9.41
2023-02-03T09:02:17.084Z,9.42
2023-02-03T09:03:11.078Z,9.40
2023-02-03T09:04:12.073Z,9.44
2023-02-03T09:05:11.177Z,9.43
2023-02-03T09:06:11.073Z,9.45
2023-02-03T09:07:11.066Z,9.48
2023-02-03T09:08:11.075Z,9.50
2023-02-03T09:09:11.081Z,9.52
2023-02-03T09:10:11.078Z,9.52
2023-02-03T09:11:13.086Z,9.55
2023-02-03T09:12:11.073Z,9.60
2023-02-03T09:13:11.071Z,9.62
2023-02-03T09:14:11.088Z,9.59
2023-02-03T09:15:11.071Z,9.60
2023-02-03T09:16:11.118Z,9.59
2023-02-03T09:17:11.078Z,9.60
2023-02-03T09:18:11.078Z,9.61
2023-02-03T09:19:11.069Z,9.64
2023-02-03T09:20:11.086Z,9.68
2023-02-03T09:21:13.908Z,9.68
2023-02-03T09:22:13.081Z,9.71
2023-02-03T09:23:11.075Z,9.72
2023-02-03T09:24:11.074Z,9.74
2023-02-03T09:25:11.072Z,9.73
2023-02-03T09:26:11.078Z,9.75
2023-02-03T09:27:11.086Z,9.78
2023-02-03T09:28:11.126Z,9.81
2023-02-03T09:29:11.079Z,9.81
2023-02-03T09:30:11.080Z,9.84
2023-02-03T09:31:14.215Z,9.89
2023-02-03T09:32:14.337Z,9.91
2023-02-03T09:33:11.076Z,9.93
2023-02-03T09:34:11.078Z,9.97
2023-02-03T09:35:11.075Z,10.01
2023-02-03T09:36:11.076Z,10.02
2023-02-03T09:37:11.080Z,10.06
2023-02-03T09:38:11.072Z,10.12
2023-02-03T09:39:11.089Z,10.13
2023-02-03T09:40:16.073Z,10.17
2023-02-03T09:41:23.077Z,10.21
2023-02-03T09:42:21.077Z,10.17
2023-02-03T09:43:17.091Z,10.17
2023-02-03T09:44:19.080Z,10.17
2023-02-03T09:45:20.077Z,10.22
2023-02-03T09:46:18.185Z,10.19
2023-02-03T09:47:20.079Z,10.22
2023-02-03T09:48:19.092Z,10.24
2023-02-03T09:49:17.078Z,10.27
2023-02-03T09:50:19.080Z,10.30
2023-02-03T09:51:18.075Z,10.34
2023-02-03T09:52:17.090Z,10.31
2023-02-03T09:53:18.085Z,10.32
2023-02-03T09:54:20.074Z,10.37
2023-02-03T09:55:21.077Z,10.41
2023-02-03T09:56:19.085Z,10.45
2023-02-03T09:57:19.079Z,10.46
2023-02-03T09:58:15.087Z,10.51
2023-02-03T09:59:11.075Z,10.49
2023-02-03T10:00:21.060Z,10.50
2023-02-03T10:01:11.109Z,10.58
2023-02-03T10:02:21.084Z,10.63
2023-02-03T10:03:18.058Z,10.62
2023-02-03T10:04:19.060Z,10.61
2023-02-03T10:05:21.069Z,10.68
2023-02-03T10:06:18.062Z,10.75
2023-02-03T10:07:19.057Z,10.79
2023-02-03T10:08:19.056Z,10.83
2023-02-03T10:09:19.060Z,10.87
2023-02-03T10:10:20.070Z,10.83
2023-02-03T10:11:23.061Z,10.88
2023-02-03T10:12:19.059Z,10.91
2023-02-03T10:13:19.059Z,10.93
2023-02-03T10:14:21.073Z,10.97
2023-02-03T10:15:19.073Z,11.01
2023-02-03T10:16:19.106Z,11.05
2023-02-03T10:17:21.067Z,11.07
2023-02-03T10:18:17.063Z,11.05
2023-02-03T10:19:19.061Z,11.01
2023-02-03T10:20:18.072Z,11.05
2023-02-03T10:21:19.072Z,11.11
2023-02-03T10:22:17.061Z,11.13
2023-02-03T10:23:21.069Z,11.17
2023-02-03T10:24:20.063Z,11.22
2023-02-03T10:25:23.064Z,11.25
2023-02-03T10:26:16.069Z,11.21
2023-02-03T10:27:19.069Z,11.24
2023-02-03T10:28:18.092Z,11.26
2023-02-03T10:29:19.070Z,11.31
2023-02-03T10:30:20.061Z,11.33
2023-02-03T10:31:18.179Z,11.38
2023-02-03T10:32:13.173Z,11.40
2023-02-03T10:33:12.061Z,11.41
2023-02-03T10:34:11.075Z,11.44
2023-02-03T10:35:13.063Z,11.45
2023-02-03T10:36:19.067Z,11.44
2023-02-03T10:37:21.071Z,11.45
2023-02-03T10:38:18.065Z,11.47
2023-02-03T10:39:19.070Z,11.49
2023-02-03T10:40:16.107Z,11.50
2023-02-03T10:41:11.169Z,11.58
2023-02-03T10:42:11.064Z,11.61
2023-02-03T10:43:15.074Z,11.65
2023-02-03T10:44:12.062Z,11.71
2023-02-03T10:45:13.068Z,11.74
2023-02-03T10:46:11.117Z,11.76
2023-02-03T10:47:19.082Z,11.81
2023-02-03T10:48:15.063Z,11.83
2023-02-03T10:49:12.349Z,11.85
2023-02-03T10:50:21.174Z,11.85
2023-02-03T10:51:19.099Z,11.89
2023-02-03T10:52:19.066Z,11.90
2023-02-03T10:53:19.070Z,11.96
2023-02-03T10:54:21.066Z,11.91
2023-02-03T10:55:19.067Z,11.95
2023-02-03T10:56:14.070Z,11.93
2023-02-03T10:57:14.064Z,11.93
2023-02-03T10:58:16.067Z,11.98
2023-02-03T10:59:19.070Z,12.00
2023-02-03T11:00:21.886Z,12.02
2023-02-03T11:01:14.128Z,12.02
2023-02-03T11:02:15.102Z,12.06
2023-02-03T11:03:19.069Z,12.10
2023-02-03T11:04:19.078Z,12.15
2023-02-03T11:05:21.100Z,12.18
2023-02-03T11:06:15.069Z,12.26
2023-02-03T11:07:19.066Z,12.35
2023-02-03T11:08:17.073Z,12.33
2023-02-03T11:09:19.070Z,12.32
2023-02-03T11:10:19.076Z,12.35
2023-02-03T11:11:14.071Z,12.35
2023-02-03T11:12:17.068Z,12.39
2023-02-03T11:13:20.073Z,12.43
2023-02-03T11:14:17.063Z,12.48
2023-02-03T11:15:15.069Z,12.54
2023-02-03T11:16:17.267Z,12.47
2023-02-03T11:17:15.070Z,12.57
2023-02-03T11:18:19.067Z,12.58
2023-02-03T11:19:16.069Z,12.58
2023-02-03T11:20:15.069Z,12.59
2023-02-03T11:21:16.080Z,12.60
2023-02-03T11:22:11.065Z,12.60
2023-02-03T11:23:12.068Z,12.69
2023-02-03T11:24:19.075Z,12.69
2023-02-03T11:25:19.085Z,12.72
2023-02-03T11:26:17.066Z,12.75
2023-02-03T11:27:16.074Z,12.82
2023-02-03T11:28:13.194Z,12.86
2023-02-03T11:29:19.066Z,12.85
2023-02-03T11:30:21.067Z,12.92
2023-02-03T11:31:18.188Z,12.94
2023-02-03T11:32:19.071Z,12.98
2023-02-03T11:33:18.078Z,13.04
2023-02-03T11:34:19.068Z,13.07
2023-02-03T11:35:19.071Z,13.07
2023-02-03T11:36:11.077Z,13.10
2023-02-03T11:37:19.068Z,13.13
2023-02-03T11:38:19.081Z,13.20
2023-02-03T11:39:11.074Z,13.27
2023-02-03T11:40:21.070Z,13.31
2023-02-03T11:41:18.074Z,13.38
2023-02-03T11:42:19.070Z,13.43
2023-02-03T11:43:17.079Z,13.38
2023-02-03T11:44:21.089Z,13.39
2023-02-03T11:45:19.078Z,13.41
2023-02-03T11:46:12.092Z,13.40
2023-02-03T11:47:11.082Z,13.40
2023-02-03T11:48:21.071Z,13.49
2023-02-03T11:49:19.070Z,13.44
2023-02-03T11:50:19.078Z,13.47
2023-02-03T11:51:21.076Z,13.53
2023-02-03T11:52:21.080Z,13.59
2023-02-03T11:53:24.076Z,13.57
2023-02-03T11:54:21.070Z,13.55
2023-02-03T11:55:19.071Z,13.49
2023-02-03T11:56:21.104Z,13.56
2023-02-03T11:57:19.081Z,13.56
2023-02-03T11:58:19.088Z,13.60
2023-02-03T11:59:20.967Z,13.64
2023-02-03T12:00:19.071Z,13.58
2023-02-03T12:01:21.071Z,13.60
2023-02-03T12:02:19.080Z,13.63
2023-02-03T12:03:19.077Z,13.66
2023-02-03T12:04:19.093Z,13.59
2023-02-03T12:05:19.095Z,13.61
2023-02-03T12:06:19.077Z,13.62
2023-02-03T12:07:19.075Z,13.68
2023-02-03T12:08:18.080Z,13.69
2023-02-03T12:09:21.073Z,13.76
2023-02-03T12:10:19.075Z,13.72
2023-02-03T12:11:19.081Z,13.76
2023-02-03T12:12:19.073Z,13.72
2023-02-03T12:13:19.081Z,13.83
2023-02-03T12:14:21.084Z,13.92
2023-02-03T12:15:19.093Z,14.03
2023-02-03T12:16:19.123Z,14.06
2023-02-03T12:17:19.083Z,14.12
2023-02-03T12:18:19.075Z,14.12
2023-02-03T12:19:19.075Z,13.96
2023-02-03T12:20:19.081Z,14.00
2023-02-03T12:21:19.087Z,14.11
2023-02-03T12:22:21.081Z,14.24
2023-02-03T12:23:19.078Z,14.31
2023-02-03T12:24:19.079Z,14.35
2023-02-03T12:25:21.079Z,14.44
2023-02-03T12:26:18.084Z,14.50
2023-02-03T12:27:19.077Z,14.41
2023-02-03T12:28:32.554Z,14.42
2023-02-03T12:29:23.068Z,14.40
2023-02-03T12:30:20.110Z,14.38
2023-02-03T12:31:18.195Z,14.41
2023-02-03T12:32:21.079Z,14.30
2023-02-03T12:33:18.081Z,14.26
2023-02-03T12:34:23.076Z,14.21
2023-02-03T12:35:19.079Z,14.08
2023-02-03T12:36:14.085Z,14.02
2023-02-03T12:37:21.099Z,13.96
2023-02-03T12:38:18.076Z,13.90
2023-02-03T12:39:19.096Z,13.79
2023-02-03T12:40:17.081Z,13.71
2023-02-03T12:41:16.081Z,13.63
2023-02-03T12:42:17.078Z,13.60
2023-02-03T12:43:21.084Z,13.43
2023-02-03T12:44:19.080Z,13.39
2023-02-03T12:45:18.092Z,13.41
2023-02-03T12:46:17.176Z,13.39
2023-02-03T12:47:19.078Z,13.30
2023-02-03T12:48:16.082Z,13.26
2023-02-03T12:49:19.102Z,13.30
2023-02-03T12:50:19.087Z,13.33
2023-02-03T12:51:16.095Z,13.28
2023-02-03T12:52:18.097Z,13.29
2023-02-03T12:53:20.078Z,13.30
2023-02-03T12:54:21.093Z,13.29
2023-02-03T12:55:19.126Z,13.32
2023-02-03T12:56:19.093Z,13.35
2023-02-03T12:57:19.088Z,13.27
2023-02-03T12:58:21.101Z,13.24
2023-02-03T12:59:19.089Z,13.27
2023-02-03T13:00:19.064Z,13.29
2023-02-03T13:01:19.115Z,13.30
2023-02-03T13:02:18.213Z,13.35
2023-02-03T13:03:18.065Z,13.38
2023-02-03T13:04:16.084Z,13.38
2023-02-03T13:05:19.058Z,13.42
2023-02-03T13:06:19.067Z,13.43
2023-02-03T13:07:23.060Z,13.46
2023-02-03T13:08:21.071Z,13.46
2023-02-03T13:09:19.062Z,13.46
2023-02-03T13:10:19.072Z,13.44
2023-02-03T13:11:19.058Z,13.35